Terminal Aerodrome Forecast
Issued by NWS St Louis, MO

Home | Current Version | Previous Version | Text Only | Print | Product List | Glossary On
Versions: 1 2 3 4 5 6 7 8 9 10 11 12 13 14 15 16 17 18 19 20 21 22 23 24 25 26 27 28 29
000
FTUS43 KLSX 291700
TAFSTL
TAF
KSTL 291721Z 2918/3024 21010KT P6SM -SHRA VCTS BKN040CB
     FM292200 22008KT P6SM SCT050 BKN100
     FM300400 17007KT 4SM -TSRA BR BKN035CB
     FM301100 20008KT P6SM -SHRA SCT015 BKN025
     FM301700 29009KT P6SM OVC015=

USA.gov is the U.S. government's official web portal to all federal, state and local government web resources and services.